Time;durP1;ratioP1;P1;durP2;ratioP2;P2;SDS_P1;SDS_P2;PMS_P1;PMS_P2;Temp;Humidity;BMP_temperature;BMP_pressure;BME280_temperature;BME280_humidity;BME280_pressure;Samples;Min_cycle;Max_cycle;Signal;HPM_P1;HPM_P2
2021/01/29 00:00:18;;;;;;;;;;;23.40;37.40;;;;;;1575714;74;710;-56
2021/01/29 00:02:20;;;;;;;;;;;23.40;37.50;;;;;;1573843;74;1760;-58
2021/01/29 00:04:22;;;;;;;;;;;23.40;37.50;;;;;;1576034;74;736;-58
2021/01/29 00:06:24;;;;;;;;;;;23.40;37.60;;;;;;1575562;74;771;-59
2021/01/29 00:08:26;;;;;;;;;;;23.40;37.60;;;;;;1575504;74;1150;-59
2021/01/29 00:10:29;;;;;;;;;;;23.40;37.60;;;;;;1563315;74;1935;-61
2021/01/29 00:12:31;;;;;;;;;;;23.50;37.70;;;;;;1575674;74;658;-57
2021/01/29 00:14:33;;;;;;;;;;;23.40;37.50;;;;;;1575806;74;747;-57
2021/01/29 00:16:35;;;;;;;;;;;23.40;37.60;;;;;;1575583;74;727;-56
2021/01/29 00:18:37;;;;;;;;;;;23.40;37.60;;;;;;1575679;74;1166;-58
2021/01/29 00:20:39;;;;;;;;;;;23.40;37.60;;;;;;1575881;74;799;-59
2021/01/29 00:22:41;;;;;;;;;;;23.50;37.70;;;;;;1576131;74;758;-59
2021/01/29 00:24:43;;;;;;;;;;;23.40;37.50;;;;;;1575545;74;890;-59
2021/01/29 00:26:45;;;;;;;;;;;23.50;37.60;;;;;;1575781;74;779;-59
2021/01/29 00:28:46;;;;;;;;;;;23.50;37.70;;;;;;1575424;74;1147;-57
2021/01/29 00:30:50;;;;;;;;;;;23.40;37.60;;;;;;1574118;74;2134;-59
2021/01/29 00:32:52;;;;;;;;;;;23.50;37.70;;;;;;1571491;74;889;-59
2021/01/29 00:34:54;;;;;;;;;;;23.50;37.60;;;;;;1573705;74;698;-57
2021/01/29 00:36:56;;;;;;;;;;;23.40;37.50;;;;;;1575528;74;617;-57
2021/01/29 00:38:58;;;;;;;;;;;23.40;37.50;;;;;;1576058;74;1155;-57
2021/01/29 00:41:00;;;;;;;;;;;23.40;37.50;;;;;;1574380;74;695;-59
2021/01/29 00:43:02;;;;;;;;;;;23.40;37.50;;;;;;1575706;74;736;-57
2021/01/29 00:45:05;;;;;;;;;;;23.50;37.60;;;;;;1576450;74;768;-58
2021/01/29 00:47:06;;;;;;;;;;;23.50;37.60;;;;;;1575895;74;760;-59
2021/01/29 00:49:08;;;;;;;;;;;23.50;37.70;;;;;;1570991;74;1136;-60
2021/01/29 00:51:10;;;;;;;;;;;23.40;37.60;;;;;;1568024;74;1953;-58
2021/01/29 00:53:12;;;;;;;;;;;23.50;37.70;;;;;;1526876;76;739;-59
2021/01/29 00:55:15;;;;;;;;;;;23.40;37.50;;;;;;1528310;76;727;-57
2021/01/29 00:57:17;;;;;;;;;;;23.50;37.60;;;;;;1526402;76;1203;-59
2021/01/29 00:59:18;;;;;;;;;;;23.40;37.50;;;;;;1525661;76;780;-58
2021/01/29 01:01:21;;;;;;;;;;;23.50;37.70;;;;;;1525766;76;653;-58
2021/01/29 01:03:22;;;;;;;;;;;23.50;37.60;;;;;;1526161;76;820;-59
2021/01/29 01:05:25;;;;;;;;;;;23.40;37.70;;;;;;1525358;76;760;-59
2021/01/29 01:07:26;;;;;;;;;;;23.50;37.80;;;;;;1525552;76;1122;-61
2021/01/29 01:09:28;;;;;;;;;;;23.50;37.90;;;;;;1526947;76;806;-60
2021/01/29 01:11:30;;;;;;;;;;;23.50;37.90;;;;;;1527180;76;1940;-59
2021/01/29 01:13:32;;;;;;;;;;;23.50;37.80;;;;;;1526541;76;844;-60
2021/01/29 01:15:34;;;;;;;;;;;23.50;37.80;;;;;;1526581;76;797;-60
2021/01/29 01:17:36;;;;;;;;;;;23.50;37.70;;;;;;1525332;76;1130;-60
2021/01/29 01:19:38;;;;;;;;;;;23.50;37.60;;;;;;1526774;76;731;-61
2021/01/29 01:21:40;;;;;;;;;;;23.50;37.60;;;;;;1523033;76;781;-59
2021/01/29 01:23:41;;;;;;;;;;;23.50;37.60;;;;;;1526709;76;761;-61
2021/01/29 01:25:43;;;;;;;;;;;23.50;37.50;;;;;;1524254;76;788;-60
2021/01/29 01:27:45;;;;;;;;;;;23.40;37.40;;;;;;1526966;76;1079;-61
2021/01/29 01:29:47;;;;;;;;;;;23.40;37.30;;;;;;1519769;77;680;-62
2021/01/29 01:31:49;;;;;;;;;;;23.50;37.40;;;;;;1525540;76;1937;-61
2021/01/29 01:33:51;;;;;;;;;;;23.50;37.30;;;;;;1524026;76;677;-61
2021/01/29 01:35:53;;;;;;;;;;;23.50;37.50;;;;;;1525206;76;708;-60
2021/01/29 01:37:55;;;;;;;;;;;23.50;37.40;;;;;;1525801;76;1178;-60
2021/01/29 01:39:57;;;;;;;;;;;23.40;37.30;;;;;;1530010;76;705;-59
2021/01/29 01:41:58;;;;;;;;;;;23.40;37.40;;;;;;1521195;76;806;-61
2021/01/29 01:44:01;;;;;;;;;;;23.40;37.40;;;;;;1522775;76;785;-60
2021/01/29 01:46:10;;;;;;;;;;;23.40;37.40;;;;;;1483142;78;747;-60
2021/01/29 01:48:12;;;;;;;;;;;23.40;37.50;;;;;;1519506;76;1181;-60
2021/01/29 01:50:16;;;;;;;;;;;23.50;37.60;;;;;;1525235;76;1936;-60
2021/01/29 01:52:19;;;;;;;;;;;23.40;37.60;;;;;;1535896;74;1167;-60
2021/01/29 01:54:26;;;;;;;;;;;23.50;37.70;;;;;;1546419;75;1292;-60
2021/01/29 01:56:32;;;;;;;;;;;23.50;37.70;;;;;;1548680;75;763;-59
2021/01/29 01:58:34;;;;;;;;;;;23.40;37.50;;;;;;1549913;75;2124;-58
2021/01/29 02:00:36;;;;;;;;;;;23.50;37.70;;;;;;1552993;75;723;-59
2021/01/29 02:02:38;;;;;;;;;;;23.50;37.70;;;;;;1553139;75;675;-59
2021/01/29 02:04:41;;;;;;;;;;;23.40;37.80;;;;;;1553007;75;724;-60
2021/01/29 02:06:44;;;;;;;;;;;23.40;37.60;;;;;;1551429;76;758;-60
2021/01/29 02:08:46;;;;;;;;;;;23.40;37.50;;;;;;1553219;75;1846;-60
2021/01/29 02:10:49;;;;;;;;;;;23.40;37.40;;;;;;1549852;75;1932;-58
2021/01/29 02:12:51;;;;;;;;;;;23.40;37.30;;;;;;1552507;75;789;-60
2021/01/29 02:14:53;;;;;;;;;;;23.40;37.40;;;;;;1553024;75;711;-58
2021/01/29 02:17:02;;;;;;;;;;;23.50;37.40;;;;;;1552612;75;703;-58
2021/01/29 02:19:11;;;;;;;;;;;23.40;37.40;;;;;;1552381;75;1177;-59
2021/01/29 02:21:15;;;;;;;;;;;23.40;37.30;;;;;;1549652;76;748;-59
2021/01/29 02:23:35;;;;;;;;;;;23.40;37.40;;;;;;1551505;75;1466;-59
2021/01/29 02:25:41;;;;;;;;;;;23.40;37.40;;;;;;1553284;75;727;-57
2021/01/29 02:27:47;;;;;;;;;;;23.40;37.40;;;;;;1552648;75;1239;-59
2021/01/29 02:29:54;;;;;;;;;;;23.40;37.40;;;;;;1528359;76;786;-59
2021/01/29 02:32:14;;;;;;;;;;;23.40;37.40;;;;;;1551201;75;1935;-59
2021/01/29 02:34:20;;;;;;;;;;;23.40;37.40;;;;;;1551793;75;787;-60
2021/01/29 02:36:33;;;;;;;;;;;23.40;37.40;;;;;;1553381;75;634;-58
2021/01/29 02:38:39;;;;;;;;;;;23.40;37.40;;;;;;1549664;75;1178;-59
2021/01/29 02:40:58;;;;;;;;;;;23.40;37.30;;;;;;1544134;75;722;-58
2021/01/29 02:43:05;;;;;;;;;;;23.40;37.40;;;;;;1552294;75;1421;-59
2021/01/29 02:45:11;;;;;;;;;;;23.40;37.30;;;;;;1554484;75;730;-59
2021/01/29 02:47:15;;;;;;;;;;;23.40;37.40;;;;;;1549895;75;1400;-60
2021/01/29 02:49:21;;;;;;;;;;;23.40;37.30;;;;;;1545368;75;614;-60
2021/01/29 02:51:36;;;;;;;;;;;23.40;37.30;;;;;;1550052;75;1923;-60
2021/01/29 02:53:40;;;;;;;;;;;23.30;37.30;;;;;;1563735;74;1880;-59
2021/01/29 02:55:46;;;;;;;;;;;23.40;37.30;;;;;;1568141;74;665;-60
2021/01/29 02:57:50;;;;;;;;;;;23.30;37.30;;;;;;1559354;74;1164;-59
2021/01/29 02:59:56;;;;;;;;;;;23.30;37.30;;;;;;1564423;74;1991;-59
2021/01/29 03:02:02;;;;;;;;;;;23.40;37.30;;;;;;1568516;74;735;-59
2021/01/29 03:04:06;;;;;;;;;;;23.30;37.40;;;;;;1567163;74;1809;-58
2021/01/29 03:06:26;;;;;;;;;;;23.40;37.30;;;;;;1564443;74;1766;-59
2021/01/29 03:08:29;;;;;;;;;;;23.40;37.30;;;;;;1564365;74;1136;-59
2021/01/29 03:10:38;;;;;;;;;;;23.40;37.30;;;;;;1568754;74;1937;-59
2021/01/29 03:12:44;;;;;;;;;;;23.40;37.40;;;;;;1568623;74;719;-60
2021/01/29 03:14:50;;;;;;;;;;;23.40;37.50;;;;;;1561232;74;897;-61
2021/01/29 03:16:53;;;;;;;;;;;23.40;37.40;;;;;;1562238;74;809;-60
2021/01/29 03:18:58;;;;;;;;;;;23.40;37.60;;;;;;1554170;74;1707;-58
2021/01/29 03:21:02;;;;;;;;;;;23.30;37.60;;;;;;1568550;74;704;-59
2021/01/29 03:23:05;;;;;;;;;;;23.40;37.60;;;;;;1568533;74;726;-58
2021/01/29 03:25:09;;;;;;;;;;;23.40;37.60;;;;;;1568869;74;700;-58
2021/01/29 03:27:12;;;;;;;;;;;23.40;37.60;;;;;;1565410;74;1464;-59
2021/01/29 03:29:15;;;;;;;;;;;23.40;37.60;;;;;;1567380;74;1148;-60
2021/01/29 03:31:17;;;;;;;;;;;23.50;37.90;;;;;;1568731;74;1930;-60
2021/01/29 03:33:19;;;;;;;;;;;23.40;37.70;;;;;;1565678;75;715;-60
2021/01/29 03:35:25;;;;;;;;;;;23.40;37.70;;;;;;1565152;74;661;-59
2021/01/29 03:37:28;;;;;;;;;;;23.40;37.70;;;;;;1566289;74;1152;-59
2021/01/29 03:39:32;;;;;;;;;;;23.40;37.70;;;;;;1567556;74;730;-58
2021/01/29 03:41:35;;;;;;;;;;;23.40;37.60;;;;;;1566230;74;1808;-58
2021/01/29 03:43:41;;;;;;;;;;;23.40;37.80;;;;;;1567501;74;765;-58
2021/01/29 03:45:48;;;;;;;;;;;23.50;37.80;;;;;;1566547;74;1827;-60
2021/01/29 03:47:51;;;;;;;;;;;23.50;37.80;;;;;;1562686;75;1134;-59
2021/01/29 03:49:57;;;;;;;;;;;23.40;37.80;;;;;;1572333;74;797;-59
2021/01/29 03:52:01;;;;;;;;;;;23.50;38.00;;;;;;1566864;74;1942;-59
2021/01/29 03:54:04;;;;;;;;;;;23.50;38.00;;;;;;1570442;74;1298;-58
2021/01/29 03:56:08;;;;;;;;;;;23.30;38.10;;;;;;1561333;74;724;-60
2021/01/29 03:58:20;;;;;;;;;;;23.20;38.40;;;;;;1566663;74;1176;-60
2021/01/29 04:00:33;;;;;;;;;;;23.20;38.90;;;;;;1566488;74;1821;-59
2021/01/29 04:02:36;;;;;;;;;;;23.10;39.20;;;;;;1561827;75;2023;-58
2021/01/29 04:04:55;;;;;;;;;;;23.10;39.40;;;;;;1563805;74;1805;-58
2021/01/29 04:07:04;;;;;;;;;;;23.00;39.40;;;;;;1575488;74;1716;-60
2021/01/29 04:09:14;;;;;;;;;;;23.00;39.60;;;;;;1569313;74;1763;-60
2021/01/29 04:11:17;;;;;;;;;;;23.00;39.80;;;;;;1566263;74;1928;-60
2021/01/29 04:13:21;;;;;;;;;;;23.00;39.80;;;;;;1567404;74;774;-59
2021/01/29 04:15:30;;;;;;;;;;;23.00;40.00;;;;;;1558291;75;616;-60
2021/01/29 04:17:34;;;;;;;;;;;23.00;40.00;;;;;;1556193;74;1176;-58
2021/01/29 04:19:36;;;;;;;;;;;23.00;40.00;;;;;;1563977;74;1465;-59
2021/01/29 04:21:42;;;;;;;;;;;23.00;40.20;;;;;;1567797;74;807;-59
2021/01/29 04:23:55;;;;;;;;;;;23.00;40.30;;;;;;1562810;74;775;-59
2021/01/29 04:25:58;;;;;;;;;;;23.00;40.20;;;;;;1568137;74;659;-57
2021/01/29 04:28:02;;;;;;;;;;;23.00;40.20;;;;;;1566567;74;1877;-59
2021/01/29 04:30:11;;;;;;;;;;;23.00;40.30;;;;;;1564948;74;687;-60
2021/01/29 04:32:13;;;;;;;;;;;23.00;40.20;;;;;;1567095;74;1934;-59
2021/01/29 04:34:17;;;;;;;;;;;23.00;40.20;;;;;;1567134;75;851;-59
2021/01/29 04:36:19;;;;;;;;;;;23.00;40.20;;;;;;1568679;74;1972;-58
2021/01/29 04:38:29;;;;;;;;;;;23.00;40.30;;;;;;1563544;74;1270;-59
2021/01/29 04:40:32;;;;;;;;;;;23.00;40.30;;;;;;1565990;74;1891;-59
2021/01/29 04:42:36;;;;;;;;;;;23.00;40.30;;;;;;1552458;74;1690;-59
2021/01/29 04:44:54;;;;;;;;;;;23.00;40.30;;;;;;1575855;74;799;-58
2021/01/29 04:47:14;;;;;;;;;;;23.00;40.40;;;;;;1568399;75;762;-60
2021/01/29 04:49:24;;;;;;;;;;;23.00;40.40;;;;;;1567320;74;956;-59
2021/01/29 04:51:44;;;;;;;;;;;23.00;40.50;;;;;;1562954;74;1942;-59
2021/01/29 04:54:02;;;;;;;;;;;23.10;40.50;;;;;;1564313;74;1136;-59
2021/01/29 04:56:06;;;;;;;;;;;23.00;40.30;;;;;;1549994;75;1731;-59
2021/01/29 04:58:15;;;;;;;;;;;23.10;40.40;;;;;;1552002;75;1224;-58
2021/01/29 05:00:37;;;;;;;;;;;23.00;40.20;;;;;;1550516;76;769;-61
2021/01/29 05:02:40;;;;;;;;;;;23.10;40.30;;;;;;1553139;75;662;-61
2021/01/29 05:05:00;;;;;;;;;;;23.10;40.50;;;;;;1552704;75;731;-58
2021/01/29 05:07:10;;;;;;;;;;;23.10;40.60;;;;;;1551006;75;757;-59
2021/01/29 05:09:25;;;;;;;;;;;23.10;40.70;;;;;;1543421;75;1083;-58
2021/01/29 05:11:35;;;;;;;;;;;23.10;40.50;;;;;;1546551;75;1929;-60
2021/01/29 05:13:54;;;;;;;;;;;23.10;40.60;;;;;;1552630;76;780;-58
2021/01/29 05:16:14;;;;;;;;;;;23.10;40.40;;;;;;1542319;75;721;-61
2021/01/29 05:18:17;;;;;;;;;;;23.10;40.40;;;;;;1550051;75;1119;-58
2021/01/29 05:20:39;;;;;;;;;;;23.10;40.50;;;;;;1552172;75;782;-60
2021/01/29 05:22:54;;;;;;;;;;;23.10;40.50;;;;;;1544822;75;750;-59
2021/01/29 05:25:04;;;;;;;;;;;23.10;40.40;;;;;;1555576;75;759;-59
2021/01/29 05:27:24;;;;;;;;;;;23.00;40.40;;;;;;1552559;75;749;-59
2021/01/29 05:29:45;;;;;;;;;;;23.00;40.40;;;;;;1537318;75;702;-59
2021/01/29 05:31:58;;;;;;;;;;;23.00;40.30;;;;;;1552872;75;1927;-59
2021/01/29 05:34:04;;;;;;;;;;;23.10;40.30;;;;;;1555924;75;647;-59
2021/01/29 05:36:23;;;;;;;;;;;23.10;40.50;;;;;;1552373;75;1001;-58
2021/01/29 05:38:45;;;;;;;;;;;23.10;40.80;;;;;;1548479;75;1098;-58
2021/01/29 05:41:05;;;;;;;;;;;23.10;40.60;;;;;;1546115;75;718;-57
2021/01/29 05:43:14;;;;;;;;;;;23.10;40.50;;;;;;1562185;75;769;-62
2021/01/29 05:45:33;;;;;;;;;;;23.10;40.40;;;;;;1552134;75;801;-59
2021/01/29 05:47:42;;;;;;;;;;;23.10;40.60;;;;;;1531479;76;1163;-58
2021/01/29 05:50:02;;;;;;;;;;;23.10;40.50;;;;;;1546347;75;1495;-59
2021/01/29 05:52:22;;;;;;;;;;;23.10;40.50;;;;;;1540082;75;1934;-60
2021/01/29 05:54:42;;;;;;;;;;;23.10;40.20;;;;;;1553750;75;1120;-59
2021/01/29 05:56:45;;;;;;;;;;;23.10;40.30;;;;;;1544898;75;832;-58
2021/01/29 05:58:49;;;;;;;;;;;23.20;40.30;;;;;;1545350;75;1156;-59
2021/01/29 06:00:52;;;;;;;;;;;23.10;40.30;;;;;;1555690;75;1825;-59
2021/01/29 06:03:05;;;;;;;;;;;23.10;40.30;;;;;;1553784;75;721;-59
2021/01/29 06:05:25;;;;;;;;;;;23.10;40.20;;;;;;1551761;75;666;-59
2021/01/29 06:07:31;;;;;;;;;;;23.10;40.90;;;;;;1538438;75;1129;-59
2021/01/29 06:09:37;;;;;;;;;;;23.20;40.40;;;;;;1561526;75;687;-59
2021/01/29 06:11:47;;;;;;;;;;;23.20;39.70;;;;;;1537906;75;1952;-57
2021/01/29 06:14:08;;;;;;;;;;;23.30;39.60;;;;;;1553053;75;730;-59
2021/01/29 06:16:21;;;;;;;;;;;23.20;39.60;;;;;;1555668;75;669;-59
2021/01/29 06:18:27;;;;;;;;;;;23.20;39.50;;;;;;1557474;75;1614;-60
2021/01/29 06:20:33;;;;;;;;;;;23.20;39.40;;;;;;1560061;75;677;-59
2021/01/29 06:22:40;;;;;;;;;;;23.20;39.40;;;;;;1551190;75;1549;-58
2021/01/29 06:24:43;;;;;;;;;;;23.20;39.40;;;;;;1546693;75;684;-59
2021/01/29 06:26:47;;;;;;;;;;;23.10;39.40;;;;;;1549523;75;745;-60
2021/01/29 06:28:56;;;;;;;;;;;23.20;39.40;;;;;;1550262;75;1786;-59
2021/01/29 06:31:16;;;;;;;;;;;23.10;39.40;;;;;;1551766;75;1435;-60
2021/01/29 06:33:36;;;;;;;;;;;23.20;39.40;;;;;;1551930;76;1933;-59
2021/01/29 06:35:40;;;;;;;;;;;23.10;39.30;;;;;;1551335;76;724;-59
2021/01/29 06:37:52;;;;;;;;;;;23.10;39.40;;;;;;1551917;75;1605;-58
2021/01/29 06:39:59;;;;;;;;;;;23.10;39.30;;;;;;1553320;75;733;-59
2021/01/29 06:42:14;;;;;;;;;;;23.10;39.30;;;;;;1556435;75;733;-61
2021/01/29 06:44:24;;;;;;;;;;;23.10;39.30;;;;;;1554910;75;692;-60
2021/01/29 06:46:28;;;;;;;;;;;23.10;39.20;;;;;;1551084;75;1837;-59
2021/01/29 06:48:31;;;;;;;;;;;23.10;39.30;;;;;;1548380;75;1216;-59
2021/01/29 06:50:47;;;;;;;;;;;23.10;39.30;;;;;;1551634;75;831;-59
2021/01/29 06:53:06;;;;;;;;;;;23.20;39.30;;;;;;1556848;75;1919;-59
2021/01/29 06:55:19;;;;;;;;;;;23.10;39.20;;;;;;1544331;75;1103;-58
2021/01/29 06:57:39;;;;;;;;;;;23.20;39.10;;;;;;1551889;75;1219;-60
2021/01/29 06:59:54;;;;;;;;;;;23.20;39.10;;;;;;1548161;75;716;-60
2021/01/29 07:01:58;;;;;;;;;;;23.20;39.20;;;;;;1537771;76;717;-57
2021/01/29 07:04:03;;;;;;;;;;;23.20;39.30;;;;;;1545626;75;2103;-60
2021/01/29 07:06:09;;;;;;;;;;;23.20;39.30;;;;;;1553012;75;729;-59
2021/01/29 07:08:16;;;;;;;;;;;23.20;39.30;;;;;;1550408;75;1161;-59
2021/01/29 07:10:22;;;;;;;;;;;23.20;39.20;;;;;;1551899;75;766;-60
2021/01/29 07:12:32;;;;;;;;;;;23.20;39.10;;;;;;1548196;75;1931;-59
2021/01/29 07:14:54;;;;;;;;;;;23.20;39.10;;;;;;1567093;75;711;-59
2021/01/29 07:16:58;;;;;;;;;;;23.20;39.20;;;;;;1557673;74;669;-59
2021/01/29 07:19:17;;;;;;;;;;;23.20;39.20;;;;;;1552948;75;1144;-60
2021/01/29 07:21:23;;;;;;;;;;;23.20;39.20;;;;;;1550961;75;753;-58
2021/01/29 07:23:29;;;;;;;;;;;23.20;39.00;;;;;;1555091;75;785;-59
2021/01/29 07:25:39;;;;;;;;;;;23.20;38.80;;;;;;1552975;75;732;-59
2021/01/29 07:27:51;;;;;;;;;;;23.20;38.70;;;;;;1557167;75;1161;-58
2021/01/29 07:30:04;;;;;;;;;;;23.20;38.50;;;;;;1555888;75;681;-59
2021/01/29 07:32:08;;;;;;;;;;;23.20;38.40;;;;;;1546728;75;1919;-58
2021/01/29 07:34:28;;;;;;;;;;;23.20;38.50;;;;;;1552209;75;772;-59
2021/01/29 07:36:48;;;;;;;;;;;23.20;38.60;;;;;;1535248;75;757;-60
2021/01/29 07:38:57;;;;;;;;;;;23.20;38.70;;;;;;1550440;75;1156;-59
2021/01/29 07:41:13;;;;;;;;;;;23.20;38.60;;;;;;1544338;75;700;-58
2021/01/29 07:43:22;;;;;;;;;;;23.20;38.60;;;;;;1552364;76;955;-59
2021/01/29 07:45:26;;;;;;;;;;;23.30;38.30;;;;;;1551576;75;732;-58
2021/01/29 07:47:45;;;;;;;;;;;23.40;38.00;;;;;;1550741;75;1169;-59
2021/01/29 07:49:52;;;;;;;;;;;23.50;37.80;;;;;;1548280;75;749;-59
2021/01/29 07:51:55;;;;;;;;;;;23.60;37.60;;;;;;1548470;75;1935;-57
2021/01/29 07:54:02;;;;;;;;;;;23.50;37.50;;;;;;1552326;75;771;-59
2021/01/29 07:56:20;;;;;;;;;;;23.60;37.40;;;;;;1557809;74;1705;-58
2021/01/29 07:58:24;;;;;;;;;;;23.60;37.30;;;;;;1569554;74;1177;-59
2021/01/29 08:00:27;;;;;;;;;;;23.60;37.10;;;;;;1560540;74;1057;-58
2021/01/29 08:02:37;;;;;;;;;;;23.50;37.30;;;;;;1563714;74;1809;-57
2021/01/29 08:04:49;;;;;;;;;;;23.60;37.20;;;;;;1574610;74;1753;-58
2021/01/29 08:06:53;;;;;;;;;;;23.60;37.20;;;;;;1568937;74;662;-59
2021/01/29 08:08:56;;;;;;;;;;;23.50;37.20;;;;;;1565436;74;1733;-58
2021/01/29 08:10:59;;;;;;;;;;;23.50;37.10;;;;;;1567885;74;606;-58
2021/01/29 08:13:03;;;;;;;;;;;23.50;37.10;;;;;;1567913;74;1900;-58
2021/01/29 08:15:15;;;;;;;;;;;23.60;37.00;;;;;;1579334;75;809;-59
2021/01/29 08:17:18;;;;;;;;;;;23.70;37.10;;;;;;1562775;74;1157;-59
2021/01/29 08:19:27;;;;;;;;;;;23.60;36.90;;;;;;1571683;74;748;-58
2021/01/29 08:21:37;;;;;;;;;;;23.50;36.90;;;;;;1571882;74;701;-59
2021/01/29 08:23:43;;;;;;;;;;;23.60;37.00;;;;;;1568034;75;1531;-59
2021/01/29 08:25:47;;;;;;;;;;;23.50;36.90;;;;;;1564011;75;1095;-58
2021/01/29 08:28:05;;;;;;;;;;;23.60;36.90;;;;;;1566921;74;1940;-59
2021/01/29 08:30:15;;;;;;;;;;;23.50;36.90;;;;;;1541938;76;1122;-59
2021/01/29 08:32:34;;;;;;;;;;;23.50;36.90;;;;;;1560831;75;1931;-58
2021/01/29 08:34:55;;;;;;;;;;;23.50;36.90;;;;;;1567916;74;706;-60
2021/01/29 08:36:58;;;;;;;;;;;23.50;36.90;;;;;;1571303;74;705;-59
2021/01/29 08:39:08;;;;;;;;;;;23.50;36.90;;;;;;1583217;74;1125;-59
2021/01/29 08:41:11;;;;;;;;;;;23.50;36.90;;;;;;1582018;74;1314;-59
2021/01/29 08:43:23;;;;;;;;;;;23.50;37.00;;;;;;1570102;74;1828;-58
2021/01/29 08:45:27;;;;;;;;;;;23.50;36.80;;;;;;1565336;74;750;-59
2021/01/29 08:47:32;;;;;;;;;;;23.50;36.80;;;;;;1576627;74;1167;-58
2021/01/29 08:49:52;;;;;;;;;;;23.50;36.80;;;;;;1570926;74;1760;-59
2021/01/29 08:52:11;;;;;;;;;;;23.50;36.80;;;;;;1574993;75;732;-59
2021/01/29 08:54:14;;;;;;;;;;;23.50;36.70;;;;;;1558677;74;769;-60
2021/01/29 08:56:20;;;;;;;;;;;23.50;36.80;;;;;;1564205;75;2040;-60
2021/01/29 08:58:27;;;;;;;;;;;23.50;36.80;;;;;;1552888;74;1778;-60
2021/01/29 09:00:30;;;;;;;;;;;23.50;36.70;;;;;;1559116;75;767;-60
2021/01/29 09:02:42;;;;;;;;;;;23.50;36.80;;;;;;1551750;75;661;-58
2021/01/29 09:04:46;;;;;;;;;;;23.50;36.60;;;;;;1556566;74;1644;-60
2021/01/29 09:06:48;;;;;;;;;;;23.50;36.70;;;;;;1556340;75;750;-57
2021/01/29 09:08:56;;;;;;;;;;;23.50;36.70;;;;;;1553735;75;1172;-57
2021/01/29 09:11:00;;;;;;;;;;;23.50;36.70;;;;;;1556013;75;731;-60
2021/01/29 09:13:03;;;;;;;;;;;23.50;36.60;;;;;;1548666;75;1934;-60
2021/01/29 09:15:21;;;;;;;;;;;23.60;36.60;;;;;;1544045;75;697;-59
2021/01/29 09:17:24;;;;;;;;;;;23.50;36.50;;;;;;1562623;75;1147;-59
2021/01/29 09:19:26;;;;;;;;;;;23.50;36.50;;;;;;1561780;75;1792;-58
2021/01/29 09:21:46;;;;;;;;;;;23.40;36.40;;;;;;1560558;75;735;-59
2021/01/29 09:23:56;;;;;;;;;;;23.50;36.40;;;;;;1549144;75;780;-58
2021/01/29 09:26:02;;;;;;;;;;;23.50;36.50;;;;;;1557534;75;1024;-58
2021/01/29 09:28:06;;;;;;;;;;;23.50;36.50;;;;;;1551125;75;1636;-58
2021/01/29 09:30:09;;;;;;;;;;;23.50;36.50;;;;;;1559382;75;752;-56
2021/01/29 09:32:13;;;;;;;;;;;23.50;36.50;;;;;;1550191;75;1691;-59
2021/01/29 09:34:19;;;;;;;;;;;23.40;36.40;;;;;;1566996;75;1920;-57
2021/01/29 09:36:38;;;;;;;;;;;23.40;36.40;;;;;;1557921;75;701;-60
2021/01/29 09:38:41;;;;;;;;;;;23.40;36.50;;;;;;1562697;75;1201;-57
2021/01/29 09:40:48;;;;;;;;;;;23.40;36.50;;;;;;1541361;75;1560;-57
2021/01/29 09:42:54;;;;;;;;;;;23.40;36.50;;;;;;1562916;75;849;-57
2021/01/29 09:44:58;;;;;;;;;;;23.40;36.50;;;;;;1561382;75;1554;-57
2021/01/29 09:47:03;;;;;;;;;;;23.40;36.50;;;;;;1552432;75;769;-58
2021/01/29 09:49:09;;;;;;;;;;;23.40;36.60;;;;;;1556997;75;1133;-59
2021/01/29 09:51:12;;;;;;;;;;;23.40;36.70;;;;;;1549442;75;800;-60
2021/01/29 09:53:21;;;;;;;;;;;23.30;36.60;;;;;;1554707;75;1920;-59
2021/01/29 09:55:29;;;;;;;;;;;23.30;36.70;;;;;;1555369;75;1793;-56
2021/01/29 09:57:33;;;;;;;;;;;23.40;36.60;;;;;;1568769;74;1341;-60
2021/01/29 09:59:43;;;;;;;;;;;23.30;36.70;;;;;;1565547;74;1772;-59
2021/01/29 10:01:46;;;;;;;;;;;23.30;36.60;;;;;;1566796;75;796;-57
2021/01/29 10:04:08;;;;;;;;;;;23.30;36.70;;;;;;1579203;74;709;-56
2021/01/29 10:06:20;;;;;;;;;;;23.30;36.70;;;;;;1572674;75;681;-56
2021/01/29 10:08:33;;;;;;;;;;;23.20;36.60;;;;;;1566284;74;1176;-56
2021/01/29 10:10:37;;;;;;;;;;;23.30;36.70;;;;;;1575686;74;759;-58
2021/01/29 10:12:43;;;;;;;;;;;23.30;36.60;;;;;;1573239;74;1942;-57
2021/01/29 10:15:03;;;;;;;;;;;23.30;36.60;;;;;;1573912;74;1615;-60
2021/01/29 10:17:06;;;;;;;;;;;23.30;36.60;;;;;;1571595;74;787;-60
2021/01/29 10:19:10;;;;;;;;;;;23.30;36.50;;;;;;1566800;74;1622;-58
2021/01/29 10:21:14;;;;;;;;;;;23.30;36.50;;;;;;1565260;74;682;-60
2021/01/29 10:23:20;;;;;;;;;;;23.30;36.60;;;;;;1564646;74;1761;-60
2021/01/29 10:25:26;;;;;;;;;;;23.30;36.50;;;;;;1566710;74;629;-61
2021/01/29 10:27:39;;;;;;;;;;;23.30;36.60;;;;;;1567468;74;1140;-60
2021/01/29 10:29:42;;;;;;;;;;;23.30;36.50;;;;;;1564179;74;702;-60
2021/01/29 10:32:04;;;;;;;;;;;23.30;36.50;;;;;;1575157;74;951;-60
2021/01/29 10:34:19;;;;;;;;;;;23.30;36.60;;;;;;1561689;74;1934;-58
2021/01/29 10:36:27;;;;;;;;;;;23.20;36.50;;;;;;1565244;74;1067;-59
2021/01/29 10:38:30;;;;;;;;;;;23.20;36.50;;;;;;1570822;74;2081;-59
2021/01/29 10:40:36;;;;;;;;;;;23.20;36.60;;;;;;1570306;74;703;-62
2021/01/29 10:42:40;;;;;;;;;;;23.20;36.60;;;;;;1573067;74;741;-61
2021/01/29 10:44:41;;;;;;;;;;;23.20;36.70;;;;;;1574992;74;1708;-58
2021/01/29 10:46:48;;;;;;;;;;;23.20;36.70;;;;;;1573890;74;752;-58
2021/01/29 10:48:55;;;;;;;;;;;23.20;36.70;;;;;;1568292;74;1223;-60
2021/01/29 10:50:58;;;;;;;;;;;23.30;36.70;;;;;;1570633;74;735;-62
2021/01/29 10:53:08;;;;;;;;;;;23.20;36.60;;;;;;1562335;74;1930;-60
2021/01/29 10:55:14;;;;;;;;;;;23.20;36.60;;;;;;1556892;74;1513;-59
2021/01/29 10:57:18;;;;;;;;;;;23.20;36.60;;;;;;1564494;74;1803;-58
2021/01/29 10:59:27;;;;;;;;;;;23.20;36.50;;;;;;1563726;74;723;-57
2021/01/29 11:01:30;;;;;;;;;;;23.20;36.60;;;;;;1567863;74;728;-60
2021/01/29 11:03:52;;;;;;;;;;;23.30;36.70;;;;;;1573233;74;869;-60
2021/01/29 11:05:54;;;;;;;;;;;23.20;36.50;;;;;;1563888;74;738;-58
2021/01/29 11:07:58;;;;;;;;;;;23.20;36.50;;;;;;1543891;75;1148;-55
2021/01/29 11:10:10;;;;;;;;;;;23.20;36.70;;;;;;1568224;74;1773;-58
2021/01/29 11:12:20;;;;;;;;;;;23.20;36.70;;;;;;1566704;74;722;-58
2021/01/29 11:14:27;;;;;;;;;;;23.20;36.80;;;;;;1564702;74;1954;-57
2021/01/29 11:16:31;;;;;;;;;;;23.20;36.80;;;;;;1565985;75;701;-58
2021/01/29 11:18:35;;;;;;;;;;;23.30;37.10;;;;;;1565571;74;1691;-59
2021/01/29 11:20:37;;;;;;;;;;;23.30;37.20;;;;;;1561179;75;723;-59
2021/01/29 11:22:47;;;;;;;;;;;23.30;37.20;;;;;;1567780;74;643;-57
2021/01/29 11:25:02;;;;;;;;;;;23.40;37.00;;;;;;1565376;74;690;-56
2021/01/29 11:27:12;;;;;;;;;;;23.30;36.80;;;;;;1562525;74;738;-59
2021/01/29 11:29:24;;;;;;;;;;;23.40;36.80;;;;;;1570526;74;1914;-56
2021/01/29 11:31:36;;;;;;;;;;;23.30;36.80;;;;;;1566830;75;1924;-58
2021/01/29 11:33:39;;;;;;;;;;;23.30;36.80;;;;;;1566164;74;1934;-58
2021/01/29 11:35:52;;;;;;;;;;;23.40;36.80;;;;;;1568788;74;816;-58
2021/01/29 11:37:58;;;;;;;;;;;23.40;36.70;;;;;;1569255;74;1148;-59
2021/01/29 11:40:05;;;;;;;;;;;23.30;36.80;;;;;;1562310;75;692;-59
2021/01/29 11:42:14;;;;;;;;;;;23.30;37.00;;;;;;1564679;74;1037;-56
2021/01/29 11:44:35;;;;;;;;;;;23.30;37.10;;;;;;1568908;75;2143;-59
2021/01/29 11:46:41;;;;;;;;;;;23.30;37.30;;;;;;1566473;74;759;-58
2021/01/29 11:48:59;;;;;;;;;;;23.20;37.20;;;;;;1562404;74;1492;-58
2021/01/29 11:51:03;;;;;;;;;;;23.20;37.30;;;;;;1565075;74;754;-57
2021/01/29 11:53:09;;;;;;;;;;;23.30;37.60;;;;;;1568427;74;1934;-58
2021/01/29 11:55:12;;;;;;;;;;;23.30;37.60;;;;;;1571183;74;669;-59
2021/01/29 11:57:16;;;;;;;;;;;23.20;37.60;;;;;;1567896;74;1077;-59
2021/01/29 11:59:22;;;;;;;;;;;23.20;37.70;;;;;;1556485;74;731;-56
2021/01/29 12:01:25;;;;;;;;;;;23.20;37.70;;;;;;1567270;74;1177;-59
2021/01/29 12:03:47;;;;;;;;;;;23.20;37.60;;;;;;1565743;74;704;-58
2021/01/29 12:05:56;;;;;;;;;;;23.20;37.60;;;;;;1569745;74;696;-56
2021/01/29 12:08:05;;;;;;;;;;;23.20;37.60;;;;;;1565471;74;1532;-57
2021/01/29 12:10:08;;;;;;;;;;;23.20;37.50;;;;;;1567924;74;1684;-59
2021/01/29 12:12:18;;;;;;;;;;;23.30;37.60;;;;;;1567108;74;1291;-59
2021/01/29 12:14:24;;;;;;;;;;;23.30;37.60;;;;;;1567610;74;1942;-59
2021/01/29 12:16:28;;;;;;;;;;;23.20;37.50;;;;;;1567540;74;712;-57
2021/01/29 12:18:33;;;;;;;;;;;23.30;37.50;;;;;;1580242;74;1136;-56
2021/01/29 12:20:35;;;;;;;;;;;23.30;37.40;;;;;;1574304;74;723;-59
2021/01/29 12:22:38;;;;;;;;;;;23.30;37.30;;;;;;1557319;75;726;-59
2021/01/29 12:24:48;;;;;;;;;;;23.30;37.30;;;;;;1569016;75;780;-58
2021/01/29 12:26:55;;;;;;;;;;;23.40;37.30;;;;;;1563878;74;1806;-59
2021/01/29 12:29:07;;;;;;;;;;;23.40;37.20;;;;;;1568243;74;1383;-59
2021/01/29 12:31:14;;;;;;;;;;;23.40;37.20;;;;;;1563052;74;808;-60
2021/01/29 12:33:17;;;;;;;;;;;23.40;37.10;;;;;;1562983;74;1934;-60
2021/01/29 12:35:24;;;;;;;;;;;23.40;37.00;;;;;;1568063;74;1937;-60
2021/01/29 12:37:27;;;;;;;;;;;23.50;37.10;;;;;;1567699;74;1113;-59